Time;durP1;ratioP1;P1;durP2;ratioP2;P2;SDS_P1;SDS_P2;PMS_P1;PMS_P2;Temp;Humidity;BMP_temperature;BMP_pressure;BME280_temperature;BME280_humidity;BME280_pressure;Samples;Min_cycle;Max_cycle;Signal;HPM_P1;HPM_P2
2023/09/06 00:00:37;;;;;;;;;;;;;;;25.52;42.64;99107.81;5030286;28;20315;-77
2023/09/06 00:03:03;;;;;;;;;;;;;;;25.53;43.00;99120.19;5032162;28;19913;-78
2023/09/06 00:05:29;;;;;;;;;;;;;;;25.54;42.72;99116.44;5031378;28;20004;-82
2023/09/06 00:07:55;;;;;;;;;;;;;;;25.52;42.93;99115.84;5018556;28;19921;-81
2023/09/06 00:10:20;;;;;;;;;;;;;;;25.49;42.85;99113.59;5011791;28;19936;-81
2023/09/06 00:12:45;;;;;;;;;;;;;;;25.46;42.95;99114.84;5011102;28;20396;-81
2023/09/06 00:15:11;;;;;;;;;;;;;;;25.42;43.03;99100.22;4995214;28;19921;-85
2023/09/06 00:17:37;;;;;;;;;;;;;;;25.40;43.25;99108.44;5009958;28;19971;-83
2023/09/06 00:20:20;;;;;;;;;;;;;;;25.39;43.33;99096.09;5013107;28;20020;-81
2023/09/06 00:22:45;;;;;;;;;;;;;;;25.37;43.49;99106.19;5012495;28;19918;-83
2023/09/06 00:25:11;;;;;;;;;;;;;;;25.35;43.61;99104.72;5012439;28;19920;-79
2023/09/06 00:27:36;;;;;;;;;;;;;;;25.32;43.36;99103.31;5012301;28;20252;-77
2023/09/06 00:30:01;;;;;;;;;;;;;;;25.32;43.28;99105.13;5012267;28;19945;-78
2023/09/06 00:32:27;;;;;;;;;;;;;;;25.31;43.53;99104.31;5012877;28;19978;-78
2023/09/06 00:34:52;;;;;;;;;;;;;;;25.31;43.49;99092.81;5012114;28;20007;-79
2023/09/06 00:37:18;;;;;;;;;;;;;;;25.30;43.38;99108.00;5012081;28;19989;-77
2023/09/06 00:39:45;;;;;;;;;;;;;;;25.28;43.20;99100.19;5010481;28;19975;-78
2023/09/06 00:42:10;;;;;;;;;;;;;;;25.27;43.26;99098.53;5012341;28;19913;-77
2023/09/06 00:44:35;;;;;;;;;;;;;;;25.27;43.07;99092.38;4993895;28;20306;-78
2023/09/06 00:47:01;;;;;;;;;;;;;;;25.27;43.34;99093.19;5011957;28;20492;-77
2023/09/06 00:49:26;;;;;;;;;;;;;;;25.27;43.21;99089.72;5010748;28;19914;-77
2023/09/06 00:51:51;;;;;;;;;;;;;;;25.26;43.21;99094.22;5011008;28;19920;-80
2023/09/06 00:54:17;;;;;;;;;;;;;;;25.22;43.19;99084.97;5013123;28;19914;-94
2023/09/06 00:56:42;;;;;;;;;;;;;;;25.17;43.23;99086.59;4995411;28;19956;-86
2023/09/06 00:59:11;;;;;;;;;;;;;;;25.11;43.61;99093.56;5011091;28;19914;-88
2023/09/06 01:01:36;;;;;;;;;;;;;;;25.07;43.52;99087.81;4994722;28;20369;-86
2023/09/06 01:04:02;;;;;;;;;;;;;;;25.06;43.50;99085.34;5011073;28;20017;-84
2023/09/06 01:06:27;;;;;;;;;;;;;;;25.04;43.50;99092.75;5010370;28;19936;-87
2023/09/06 01:08:57;;;;;;;;;;;;;;;25.02;43.61;99084.13;4994697;28;19920;-90
2023/09/06 01:11:23;;;;;;;;;;;;;;;25.00;43.60;99080.81;4994036;28;19964;-90
2023/09/06 01:13:52;;;;;;;;;;;;;;;24.98;43.54;99078.34;5010762;28;19920;-91
2023/09/06 01:16:25;;;;;;;;;;;;;;;24.99;43.46;99080.00;5012229;28;20388;-90
2023/09/06 01:18:51;;;;;;;;;;;;;;;24.99;43.78;99081.84;5011547;28;19988;-91
2023/09/06 01:21:17;;;;;;;;;;;;;;;24.97;43.57;99071.38;5010649;28;20404;-89
2023/09/06 01:23:43;;;;;;;;;;;;;;;24.97;43.62;99073.19;5012394;28;19917;-93
2023/09/06 01:26:08;;;;;;;;;;;;;;;24.98;43.47;99077.53;5010252;28;20068;-78
2023/09/06 01:28:34;;;;;;;;;;;;;;;24.98;43.66;99073.00;5012356;28;19918;-76
2023/09/06 01:31:00;;;;;;;;;;;;;;;25.01;43.47;99071.78;5016332;28;19956;-82
2023/09/06 01:33:25;;;;;;;;;;;;;;;24.95;43.48;99077.94;5015191;28;19921;-82
2023/09/06 01:35:50;;;;;;;;;;;;;;;24.89;43.71;99072.38;5015077;28;20391;-82
2023/09/06 01:38:16;;;;;;;;;;;;;;;24.89;43.73;99074.22;5015204;28;19920;-83
2023/09/06 01:40:42;;;;;;;;;;;;;;;24.85;43.75;99073.78;5014977;28;19913;-84
2023/09/06 01:43:08;;;;;;;;;;;;;;;24.83;43.73;99075.84;4997717;28;19967;-85
2023/09/06 01:45:36;;;;;;;;;;;;;;;24.81;43.85;99074.41;5014653;28;20297;-85
2023/09/06 01:48:03;;;;;;;;;;;;;;;24.78;43.80;99077.47;5015989;28;19957;-84
2023/09/06 01:50:28;;;;;;;;;;;;;;;24.72;43.99;99063.91;5015095;28;19914;-85
2023/09/06 01:52:55;;;;;;;;;;;;;;;24.68;43.91;99068.00;5014605;28;19963;-85
2023/09/06 01:55:21;;;;;;;;;;;;;;;24.68;44.05;99072.50;5014767;28;20404;-86
2023/09/06 01:57:46;;;;;;;;;;;;;;;24.66;44.01;99072.72;5015887;28;19913;-85
2023/09/06 02:00:45;;;;;;;;;;;;;;;24.59;43.97;99065.69;5015723;28;20373;-85
2023/09/06 02:03:03;;;;;;;;;;;;;;;24.52;44.01;99068.31;5015506;28;19973;-85
2023/09/06 02:05:31;;;;;;;;;;;;;;;24.50;44.09;99071.19;4998230;28;19941;-84
2023/09/06 02:07:57;;;;;;;;;;;;;;;24.43;44.20;99073.03;5015865;28;19943;-84
2023/09/06 02:10:22;;;;;;;;;;;;;;;24.37;44.23;99076.47;5015974;28;19917;-85
2023/09/06 02:12:47;;;;;;;;;;;;;;;24.35;44.30;99078.50;5014416;28;20007;-86
2023/09/06 02:15:14;;;;;;;;;;;;;;;24.30;44.38;99084.44;5015698;28;19919;-86
2023/09/06 02:17:42;;;;;;;;;;;;;;;24.27;44.34;99090.16;5014463;28;20395;-84
2023/09/06 02:20:20;;;;;;;;;;;;;;;24.26;44.28;99090.34;5014346;28;19924;-85
2023/09/06 02:22:52;;;;;;;;;;;;;;;24.22;44.44;99089.13;5015918;28;19957;-85
2023/09/06 02:25:17;;;;;;;;;;;;;;;24.21;44.61;99090.97;5014607;28;19913;-85
2023/09/06 02:27:43;;;;;;;;;;;;;;;24.20;44.54;99086.66;5016195;28;19936;-84
2023/09/06 02:30:08;;;;;;;;;;;;;;;24.21;44.59;99082.97;5014478;28;19917;-84
2023/09/06 02:32:34;;;;;;;;;;;;;;;24.17;44.68;99082.53;5014292;28;19914;-85
2023/09/06 02:34:59;;;;;;;;;;;;;;;24.14;44.64;99077.59;5015029;28;20000;-84
2023/09/06 02:37:24;;;;;;;;;;;;;;;24.13;44.56;99085.78;5013917;28;19917;-85
2023/09/06 02:39:53;;;;;;;;;;;;;;;24.11;44.52;99087.81;5013607;28;19913;-85
2023/09/06 02:42:18;;;;;;;;;;;;;;;24.08;44.47;99082.88;4997339;28;20387;-86
2023/09/06 02:44:44;;;;;;;;;;;;;;;24.08;44.63;99080.22;4997415;28;19917;-86
2023/09/06 02:47:11;;;;;;;;;;;;;;;24.08;44.66;99077.56;5014731;28;20008;-84
2023/09/06 02:49:41;;;;;;;;;;;;;;;24.07;44.51;99073.22;5013858;28;20424;-84
2023/09/06 02:52:11;;;;;;;;;;;;;;;24.07;44.53;99078.56;5013911;28;19920;-85
2023/09/06 02:54:37;;;;;;;;;;;;;;;24.08;44.49;99077.56;4998191;28;19979;-85
2023/09/06 02:57:03;;;;;;;;;;;;;;;24.09;44.48;99079.22;5013759;28;19917;-85
2023/09/06 02:59:28;;;;;;;;;;;;;;;24.08;44.32;99074.88;5013569;28;20395;-84
2023/09/06 03:01:54;;;;;;;;;;;;;;;24.08;44.72;99075.69;5014564;28;19914;-84
2023/09/06 03:04:20;;;;;;;;;;;;;;;24.09;44.62;99079.22;5015062;28;19987;-83
2023/09/06 03:06:45;;;;;;;;;;;;;;;24.10;44.51;99086.16;4996549;28;19917;-83
2023/09/06 03:09:10;;;;;;;;;;;;;;;24.11;44.36;99082.50;5014637;28;19913;-77
2023/09/06 03:11:36;;;;;;;;;;;;;;;24.11;44.44;99087.81;5013561;28;19917;-77
2023/09/06 03:14:03;;;;;;;;;;;;;;;24.10;44.37;99087.00;5012518;28;20389;-77
2023/09/06 03:16:38;;;;;;;;;;;;;;;24.10;44.47;99083.50;5013589;28;19917;-77
2023/09/06 03:19:06;;;;;;;;;;;;;;;24.10;44.51;99087.00;5012747;28;20007;-77
2023/09/06 03:21:34;;;;;;;;;;;;;;;24.22;44.60;99081.94;5013969;28;20408;-76
2023/09/06 03:24:00;;;;;;;;;;;;;;;24.29;44.35;99090.81;5014385;28;19936;-76
2023/09/06 03:26:25;;;;;;;;;;;;;;;24.36;43.93;99088.16;5012717;28;19918;-76
2023/09/06 03:28:55;;;;;;;;;;;;;;;24.41;43.69;99088.38;5013993;28;19920;-76
2023/09/06 03:31:20;;;;;;;;;;;;;;;24.47;43.55;99084.94;5012852;28;19913;-76
2023/09/06 03:33:45;;;;;;;;;;;;;;;24.50;43.36;99081.88;5012869;28;19921;-77
2023/09/06 03:36:11;;;;;;;;;;;;;;;24.53;43.31;99084.13;5012879;28;19925;-76
2023/09/06 03:38:37;;;;;;;;;;;;;;;24.59;43.22;99079.03;5013931;28;19914;-77
2023/09/06 03:41:07;;;;;;;;;;;;;;;24.63;43.02;99088.31;5012730;28;19920;-76
2023/09/06 03:43:32;;;;;;;;;;;;;;;24.62;42.85;99084.84;5014069;28;20373;-76
2023/09/06 03:45:58;;;;;;;;;;;;;;;24.63;42.80;99086.47;5012542;28;19946;-77
2023/09/06 03:48:25;;;;;;;;;;;;;;;24.63;42.64;99097.13;5012468;28;19917;-76
2023/09/06 03:50:55;;;;;;;;;;;;;;;24.62;42.76;99095.50;4996293;28;19920;-77
2023/09/06 03:53:20;;;;;;;;;;;;;;;24.65;42.75;99103.09;4996254;28;20011;-76
2023/09/06 03:55:46;;;;;;;;;;;;;;;24.67;42.50;99100.22;5012421;28;20008;-77
2023/09/06 03:58:12;;;;;;;;;;;;;;;24.70;42.44;99105.16;5012526;28;20393;-76
2023/09/06 04:00:43;;;;;;;;;;;;;;;24.72;42.43;99103.94;5013767;28;19973;-77
2023/09/06 04:03:09;;;;;;;;;;;;;;;24.76;42.25;99100.88;5012627;28;19941;-76
2023/09/06 04:05:34;;;;;;;;;;;;;;;24.78;42.25;99102.34;5012310;28;19972;-76
2023/09/06 04:08:04;;;;;;;;;;;;;;;24.80;42.12;99102.94;5012231;28;19913;-77
2023/09/06 04:10:36;;;;;;;;;;;;;;;24.82;42.09;99100.91;5012174;28;20277;-77
2023/09/06 04:13:01;;;;;;;;;;;;;;;24.81;42.01;99104.59;5013444;28;19913;-77
2023/09/06 04:15:29;;;;;;;;;;;;;;;24.84;42.22;99103.38;4995668;28;19914;-77
2023/09/06 04:17:57;;;;;;;;;;;;;;;24.89;42.04;99103.56;4995888;28;19913;-77
2023/09/06 04:20:23;;;;;;;;;;;;;;;24.92;41.79;99111.19;5012025;28;20362;-77
2023/09/06 04:22:48;;;;;;;;;;;;;;;24.92;41.79;99109.38;5013295;28;20404;-75
2023/09/06 04:25:16;;;;;;;;;;;;;;;24.93;41.62;99110.16;5013388;28;19913;-77
2023/09/06 04:27:43;;;;;;;;;;;;;;;24.95;41.66;99105.44;5012928;28;19913;-78
2023/09/06 04:30:09;;;;;;;;;;;;;;;24.98;41.68;99112.25;5011857;28;20284;-76
2023/09/06 04:32:34;;;;;;;;;;;;;;;25.02;41.31;99106.28;5012994;28;19920;-77
2023/09/06 04:35:00;;;;;;;;;;;;;;;25.11;41.14;99106.91;5012675;28;19918;-77
2023/09/06 04:37:25;;;;;;;;;;;;;;;25.22;40.97;99113.53;4995328;28;19921;-76
2023/09/06 04:39:53;;;;;;;;;;;;;;;25.34;40.83;99108.44;5011806;28;19936;-77
2023/09/06 04:42:18;;;;;;;;;;;;;;;25.44;40.42;99114.19;5011196;28;19920;-77
2023/09/06 04:44:44;;;;;;;;;;;;;;;25.55;40.16;99118.09;5011925;28;19914;-76
2023/09/06 04:47:14;;;;;;;;;;;;;;;25.62;39.99;99113.59;5012913;28;19913;-76
2023/09/06 04:49:40;;;;;;;;;;;;;;;25.73;40.06;99112.13;5011712;28;19956;-77
2023/09/06 04:52:05;;;;;;;;;;;;;;;25.79;39.96;99114.81;5011113;28;19913;-77
2023/09/06 04:54:32;;;;;;;;;;;;;;;25.82;39.37;99111.75;5030064;28;19971;-77
2023/09/06 04:56:58;;;;;;;;;;;;;;;25.87;39.64;99118.31;5032232;28;19974;-75
2023/09/06 04:59:23;;;;;;;;;;;;;;;25.94;39.36;99109.25;5031449;28;19913;-76
2023/09/06 05:01:48;;;;;;;;;;;;;;;26.00;39.53;99113.78;5031078;28;19936;-77
2023/09/06 05:04:14;;;;;;;;;;;;;;;26.04;39.06;99114.19;5032570;28;19913;-76
2023/09/06 05:06:40;;;;;;;;;;;;;;;26.20;38.87;99109.44;5035238;28;19920;-79
2023/09/06 05:09:06;;;;;;;;;;;;;;;26.58;38.39;99114.84;5036397;28;19913;-76
2023/09/06 05:11:32;;;;;;;;;;;;;;;27.48;36.57;99115.88;5017090;28;20387;-77
2023/09/06 05:13:57;;;;;;;;;;;;;;;29.08;33.73;99111.47;5015311;28;19913;-77
2023/09/06 05:16:22;;;;;;;;;;;;;;;30.30;31.90;99120.06;5015265;28;19913;-78
2023/09/06 05:18:48;;;;;;;;;;;;;;;30.48;30.35;99117.22;5016329;28;20393;-76
2023/09/06 05:21:13;;;;;;;;;;;;;;;30.86;29.86;99117.69;4998999;28;20435;-76
2023/09/06 05:23:38;;;;;;;;;;;;;;;30.43;30.00;99125.22;5015071;28;19996;-75
2023/09/06 05:26:04;;;;;;;;;;;;;;;29.77;31.21;99121.81;5015941;28;19924;-75
2023/09/06 05:28:29;;;;;;;;;;;;;;;29.59;31.53;99123.56;5015298;28;20336;-75
2023/09/06 05:30:54;;;;;;;;;;;;;;;29.32;31.82;99135.75;5015193;28;19913;-76
2023/09/06 05:33:20;;;;;;;;;;;;;;;29.16;32.79;99131.81;5014682;28;19922;-76
2023/09/06 05:35:45;;;;;;;;;;;;;;;29.04;33.27;99139.88;5015234;28;19921;-74
2023/09/06 05:38:11;;;;;;;;;;;;;;;28.98;33.36;99138.91;4997848;28;19917;-73
2023/09/06 05:40:36;;;;;;;;;;;;;;;28.88;33.48;99142.13;4998243;28;19920;-75
2023/09/06 05:43:41;;;;;;;;;;;;;;;28.78;33.15;99149.94;5014849;28;19913;-76
2023/09/06 05:46:06;;;;;;;;;;;;;;;28.48;33.59;99141.75;5015526;28;19984;-77
2023/09/06 05:48:31;;;;;;;;;;;;;;;28.24;34.26;99157.72;5020845;28;19999;-76
2023/09/06 05:50:56;;;;;;;;;;;;;;;27.98;34.57;99148.06;5015729;28;19920;-76
2023/09/06 05:53:23;;;;;;;;;;;;;;;27.90;34.75;99159.88;5014520;28;19913;-75
2023/09/06 05:55:49;;;;;;;;;;;;;;;27.75;35.17;99156.69;5015659;28;19921;-75
2023/09/06 05:58:14;;;;;;;;;;;;;;;27.72;35.33;99162.50;5015631;28;19913;-76
2023/09/06 06:00:41;;;;;;;;;;;;;;;27.59;35.73;99164.22;4998157;28;19913;-76
2023/09/06 06:03:06;;;;;;;;;;;;;;;27.50;35.35;99168.25;5015511;28;20455;-76
2023/09/06 06:05:32;;;;;;;;;;;;;;;27.31;35.69;99170.00;4997669;28;19996;-75
2023/09/06 06:07:58;;;;;;;;;;;;;;;27.17;36.24;99174.59;5014254;28;20431;-75
2023/09/06 06:10:23;;;;;;;;;;;;;;;27.03;36.60;99183.72;5015535;28;19964;-77
2023/09/06 06:12:51;;;;;;;;;;;;;;;27.05;36.85;99192.38;5024111;28;19967;-87
2023/09/06 06:15:16;;;;;;;;;;;;;;;27.04;37.06;99193.38;5017502;28;20311;-76
2023/09/06 06:17:42;;;;;;;;;;;;;;;27.02;36.67;99204.31;5034699;28;19956;-80
2023/09/06 06:20:09;;;;;;;;;;;;;;;26.99;36.77;99210.09;5016837;28;19913;-81
2023/09/06 06:22:39;;;;;;;;;;;;;;;26.98;36.50;99207.63;5033657;28;19971;-81
2023/09/06 06:25:05;;;;;;;;;;;;;;;26.99;36.52;99215.47;5033905;28;19917;-80
2023/09/06 06:27:31;;;;;;;;;;;;;;;27.03;36.32;99227.41;5033691;28;19987;-81
2023/09/06 06:29:56;;;;;;;;;;;;;;;27.03;36.96;99221.25;5034605;28;19913;-78
2023/09/06 06:32:22;;;;;;;;;;;;;;;27.10;36.94;99230.06;5033241;28;19912;-79
2023/09/06 06:35:14;;;;;;;;;;;;;;;27.22;36.90;99228.34;5015054;28;19970;-76
2023/09/06 06:37:39;;;;;;;;;;;;;;;27.37;36.64;99230.81;4993276;28;19918;-78
2023/09/06 06:40:06;;;;;;;;;;;;;;;27.64;35.96;99227.94;4961243;28;20373;-86
2023/09/06 06:42:31;;;;;;;;;;;;;;;27.86;35.79;99232.94;4976892;28;20373;-85
2023/09/06 06:44:58;;;;;;;;;;;;;;;28.04;35.70;99233.06;4960857;28;19913;-84
2023/09/06 06:47:23;;;;;;;;;;;;;;;28.28;35.63;99242.13;4992615;28;19914;-76
2023/09/06 06:49:49;;;;;;;;;;;;;;;28.42;34.29;99237.47;4993366;28;20326;-76
2023/09/06 06:52:15;;;;;;;;;;;;;;;28.58;34.82;99240.66;4976931;28;19961;-79
2023/09/06 06:54:43;;;;;;;;;;;;;;;28.71;34.57;99243.19;4963099;28;20000;-75
2023/09/06 06:57:09;;;;;;;;;;;;;;;28.85;34.53;99249.25;4992851;28;19956;-77
2023/09/06 06:59:34;;;;;;;;;;;;;;;28.98;34.31;99241.00;4992590;28;19960;-74
2023/09/06 07:02:00;;;;;;;;;;;;;;;29.13;34.36;99242.47;4992875;28;20003;-74
2023/09/06 07:04:25;;;;;;;;;;;;;;;29.33;34.25;99236.91;4976514;28;19917;-79
2023/09/06 07:06:50;;;;;;;;;;;;;;;29.46;33.65;99236.72;4991656;28;19914;-76
2023/09/06 07:09:16;;;;;;;;;;;;;;;29.57;33.29;99235.94;4975283;28;19913;-78
2023/09/06 07:11:41;;;;;;;;;;;;;;;29.66;33.35;99235.59;4991776;28;19961;-81
2023/09/06 07:14:06;;;;;;;;;;;;;;;29.74;33.61;99228.00;5003048;28;19913;-85
2023/09/06 07:16:33;;;;;;;;;;;;;;;29.91;33.23;99225.50;5031785;28;20407;-87
2023/09/06 07:18:58;;;;;;;;;;;;;;;30.01;33.39;99224.13;5014157;28;19920;-85
2023/09/06 07:21:25;;;;;;;;;;;;;;;30.13;33.10;99227.66;5012217;28;19913;-84
2023/09/06 07:23:50;;;;;;;;;;;;;;;30.10;33.27;99218.16;5013600;28;19914;-81
2023/09/06 07:26:16;;;;;;;;;;;;;;;30.19;32.64;99224.03;5012812;28;20005;-80
2023/09/06 07:28:42;;;;;;;;;;;;;;;30.28;32.39;99228.00;5013078;28;19940;-77
2023/09/06 07:31:07;;;;;;;;;;;;;;;30.17;32.68;99233.38;5011616;28;19976;-78
2023/09/06 07:33:33;;;;;;;;;;;;;;;30.36;32.32;99223.31;5028168;28;20254;-78
2023/09/06 07:35:58;;;;;;;;;;;;;;;30.43;31.84;99215.97;5011864;28;20328;-75
2023/09/06 07:38:24;;;;;;;;;;;;;;;30.52;31.69;99214.56;5012822;28;19920;-75
2023/09/06 07:41:09;;;;;;;;;;;;;;;30.56;32.13;99221.09;5013019;28;20381;-73
2023/09/06 07:43:35;;;;;;;;;;;;;;;30.59;31.29;99217.94;5010956;28;20009;-74
2023/09/06 07:46:01;;;;;;;;;;;;;;;30.28;30.84;99208.31;4995078;28;20059;-72
2023/09/06 07:48:26;;;;;;;;;;;;;;;30.27;30.88;99217.47;5027805;28;20234;-74
2023/09/06 07:50:52;;;;;;;;;;;;;;;30.33;31.39;99205.75;5028292;28;19996;-75
2023/09/06 07:53:17;;;;;;;;;;;;;;;30.28;30.94;99211.00;5010666;28;20492;-74
2023/09/06 07:55:43;;;;;;;;;;;;;;;30.35;31.14;99206.34;5028161;28;20300;-74
2023/09/06 07:58:08;;;;;;;;;;;;;;;30.26;30.86;99207.75;5010850;28;20331;-73
2023/09/06 08:00:36;;;;;;;;;;;;;;;30.22;30.61;99212.78;5028375;28;19920;-74
2023/09/06 08:03:01;;;;;;;;;;;;;;;30.25;30.67;99203.41;5027564;28;19913;-76
2023/09/06 08:05:27;;;;;;;;;;;;;;;30.21;30.58;99204.94;5027698;28;19920;-75
2023/09/06 08:07:52;;;;;;;;;;;;;;;30.25;30.72;99208.78;5027615;28;20000;-76
2023/09/06 08:10:18;;;;;;;;;;;;;;;30.26;31.03;99210.44;5012652;28;20442;-77
2023/09/06 08:12:43;;;;;;;;;;;;;;;30.29;30.79;99213.47;5008972;28;19937;-75
2023/09/06 08:15:08;;;;;;;;;;;;;;;30.31;31.01;99214.06;5010953;28;20364;-74
2023/09/06 08:17:34;;;;;;;;;;;;;;;30.29;30.78;99220.75;5011228;28;19975;-76
2023/09/06 08:19:59;;;;;;;;;;;;;;;30.13;31.05;99220.38;5011054;28;20000;-76
2023/09/06 08:22:24;;;;;;;;;;;;;;;30.07;31.20;99213.22;5011283;28;20440;-76
2023/09/06 08:24:50;;;;;;;;;;;;;;;30.08;30.69;99216.75;5012012;28;19913;-77
2023/09/06 08:27:16;;;;;;;;;;;;;;;30.04;30.55;99221.78;5011993;28;20023;-77
2023/09/06 08:29:41;;;;;;;;;;;;;;;29.92;30.19;99216.38;4994821;28;20008;-74
2023/09/06 08:32:08;;;;;;;;;;;;;;;29.87;30.74;99215.44;5012319;28;19945;-75
2023/09/06 08:34:33;;;;;;;;;;;;;;;29.77;30.78;99211.41;4994642;28;19924;-75
2023/09/06 08:36:58;;;;;;;;;;;;;;;29.78;30.38;99207.69;5010714;28;19917;-79
2023/09/06 08:39:24;;;;;;;;;;;;;;;29.76;30.78;99220.53;5009954;28;19959;-76
2023/09/06 08:41:49;;;;;;;;;;;;;;;29.72;30.78;99221.25;4993830;28;20000;-75
2023/09/06 08:44:17;;;;;;;;;;;;;;;29.64;31.09;99222.38;4994685;28;19920;-73
2023/09/06 08:46:42;;;;;;;;;;;;;;;29.64;31.38;99221.56;5010642;28;20454;-74
2023/09/06 08:49:07;;;;;;;;;;;;;;;29.58;31.13;99221.41;5010933;28;19957;-75
2023/09/06 08:51:35;;;;;;;;;;;;;;;29.49;31.64;99221.97;4993640;28;20364;-75
2023/09/06 08:54:01;;;;;;;;;;;;;;;29.40;31.15;99226.88;5010755;28;19914;-73
2023/09/06 08:56:26;;;;;;;;;;;;;;;29.34;31.48;99217.84;4993922;28;19913;-75
2023/09/06 08:58:52;;;;;;;;;;;;;;;29.33;31.58;99210.00;5012237;28;19920;-78
2023/09/06 09:01:17;;;;;;;;;;;;;;;29.32;31.14;99216.41;4994301;28;19920;-77
2023/09/06 09:03:43;;;;;;;;;;;;;;;29.33;31.39;99228.81;5010306;28;20372;-77
2023/09/06 09:06:09;;;;;;;;;;;;;;;29.24;30.61;99214.91;5020056;28;19924;-77
2023/09/06 09:08:34;;;;;;;;;;;;;;;29.27;31.35;99224.34;5019516;28;19936;-77
2023/09/06 09:11:15;;;;;;;;;;;;;;;29.35;32.37;99222.19;5010889;28;19953;-76
2023/09/06 09:13:41;;;;;;;;;;;;;;;29.46;32.10;99228.66;4997059;28;20355;-81
2023/09/06 09:16:10;;;;;;;;;;;;;;;29.56;32.00;99225.41;4994518;28;20012;-82
2023/09/06 09:18:39;;;;;;;;;;;;;;;29.60;31.77;99223.88;5010256;28;19917;-79
2023/09/06 09:21:05;;;;;;;;;;;;;;;29.65;30.97;99224.03;4994405;28;19913;-86
2023/09/06 09:23:30;;;;;;;;;;;;;;;29.65;31.13;99218.66;4996246;28;19920;-85
2023/09/06 09:25:57;;;;;;;;;;;;;;;29.61;30.91;99222.84;5012139;28;19921;-84
2023/09/06 09:28:22;;;;;;;;;;;;;;;29.60;30.84;99234.66;5012263;28;19914;-85
2023/09/06 09:30:48;;;;;;;;;;;;;;;29.47;29.98;99226.78;5012430;28;19913;-81
2023/09/06 09:33:13;;;;;;;;;;;;;;;29.33;31.36;99228.81;4995324;28;19913;-77
2023/09/06 09:35:40;;;;;;;;;;;;;;;29.34;31.25;99223.22;5010478;28;20395;-78
2023/09/06 09:38:06;;;;;;;;;;;;;;;29.41;31.04;99228.50;5008726;28;20882;-71
2023/09/06 09:40:34;;;;;;;;;;;;;;;29.51;31.54;99231.47;4976222;28;19913;-78
2023/09/06 09:43:04;;;;;;;;;;;;;;;29.60;31.10;99231.94;4976653;28;19985;-77
2023/09/06 09:45:29;;;;;;;;;;;;;;;29.64;31.01;99230.44;4992748;28;20300;-77
2023/09/06 09:47:55;;;;;;;;;;;;;;;29.61;31.14;99238.97;5008951;28;19920;-76
2023/09/06 09:50:29;;;;;;;;;;;;;;;29.59;31.61;99241.09;5012088;28;20369;-78
2023/09/06 09:52:55;;;;;;;;;;;;;;;29.59;31.84;99244.59;4998059;28;20417;-78
2023/09/06 09:55:22;;;;;;;;;;;;;;;29.59;31.98;99238.41;4981980;28;19979;-76
2023/09/06 09:57:47;;;;;;;;;;;;;;;29.63;32.41;99246.81;4981967;28;20012;-77
2023/09/06 10:00:13;;;;;;;;;;;;;;;29.67;32.39;99234.56;5014841;28;20379;-80
2023/09/06 10:02:40;;;;;;;;;;;;;;;29.67;32.52;99237.25;5014547;28;20019;-76
2023/09/06 10:05:08;;;;;;;;;;;;;;;29.62;32.30;99239.78;4998163;28;20297;-76
2023/09/06 10:07:34;;;;;;;;;;;;;;;29.55;32.78;99234.53;4998299;28;20012;-77
2023/09/06 10:09:59;;;;;;;;;;;;;;;29.56;32.48;99222.72;4998066;28;19959;-78
2023/09/06 10:12:24;;;;;;;;;;;;;;;29.53;32.91;99232.06;5014613;28;19921;-77
2023/09/06 10:14:49;;;;;;;;;;;;;;;29.55;32.85;99229.94;5014418;28;19945;-77
2023/09/06 10:17:15;;;;;;;;;;;;;;;29.61;32.52;99240.88;5014240;28;20442;-79
2023/09/06 10:19:40;;;;;;;;;;;;;;;29.65;32.63;99224.03;5013929;28;19921;-77
2023/09/06 10:22:05;;;;;;;;;;;;;;;29.66;32.87;99227.53;5014184;28;19914;-76
2023/09/06 10:24:32;;;;;;;;;;;;;;;29.63;32.48;99220.72;5015413;28;20019;-76
2023/09/06 10:26:57;;;;;;;;;;;;;;;29.65;32.76;99221.34;4997538;28;19914;-80
2023/09/06 10:29:23;;;;;;;;;;;;;;;29.67;32.40;99227.31;4997535;28;19921;-78
2023/09/06 10:31:49;;;;;;;;;;;;;;;29.74;32.77;99228.00;4981441;28;19921;-77
2023/09/06 10:34:15;;;;;;;;;;;;;;;29.90;32.57;99231.13;4997095;28;19917;-77
2023/09/06 10:36:57;;;;;;;;;;;;;;;30.08;32.33;99230.22;4981750;28;20408;-76
2023/09/06 10:39:24;;;;;;;;;;;;;;;30.25;31.83;99235.72;4997157;28;20392;-76
2023/09/06 10:42:08;;;;;;;;;;;;;;;30.42;31.17;99225.09;4997523;28;19914;-80
2023/09/06 10:44:52;;;;;;;;;;;;;;;30.52;31.01;99219.94;5014835;28;19920;-77
2023/09/06 10:47:24;;;;;;;;;;;;;;;30.56;30.78;99222.97;5014744;28;19913;-77
2023/09/06 10:50:07;;;;;;;;;;;;;;;30.64;30.65;99220.72;4997112;28;19920;-79
2023/09/06 10:52:40;;;;;;;;;;;;;;;30.79;30.80;99222.94;5014664;28;19972;-77
2023/09/06 10:55:10;;;;;;;;;;;;;;;30.87;30.91;99220.91;5014783;28;20439;-76
2023/09/06 10:57:48;;;;;;;;;;;;;;;30.85;30.98;99219.31;5014909;28;19918;-77
2023/09/06 11:00:17;;;;;;;;;;;;;;;30.81;30.66;99220.00;5014574;28;19913;-76
2023/09/06 11:02:42;;;;;;;;;;;;;;;30.77;30.51;99208.88;4979847;28;19921;-76
2023/09/06 11:05:09;;;;;;;;;;;;;;;30.78;30.87;99218.59;5012919;28;19913;-76
2023/09/06 11:07:38;;;;;;;;;;;;;;;30.87;30.87;99216.38;4980460;28;19914;-77
2023/09/06 11:10:03;;;;;;;;;;;;;;;30.94;30.93;99208.13;5014517;28;20016;-76
2023/09/06 11:12:28;;;;;;;;;;;;;;;30.82;30.87;99194.69;5012638;28;19996;-77
2023/09/06 11:14:54;;;;;;;;;;;;;;;30.73;30.94;99201.53;4996718;28;19913;-76
2023/09/06 11:17:20;;;;;;;;;;;;;;;30.67;30.78;99187.13;4996611;28;19921;-77
2023/09/06 11:19:45;;;;;;;;;;;;;;;30.63;30.71;99202.09;5013043;28;19913;-77
2023/09/06 11:22:11;;;;;;;;;;;;;;;30.61;30.63;99188.06;5013302;28;19913;-77
2023/09/06 11:24:37;;;;;;;;;;;;;;;30.62;30.46;99179.75;4996700;28;19913;-76
2023/09/06 11:27:21;;;;;;;;;;;;;;;30.63;30.23;99177.84;5012915;28;19976;-76
2023/09/06 11:29:57;;;;;;;;;;;;;;;30.57;30.39;99179.66;5014449;28;19917;-75
2023/09/06 11:32:22;;;;;;;;;;;;;;;30.53;30.63;99183.03;5014061;28;20377;-76
2023/09/06 11:34:48;;;;;;;;;;;;;;;30.49;31.10;99180.81;5012326;28;19917;-76
2023/09/06 11:37:15;;;;;;;;;;;;;;;30.49;30.71;99177.31;4980116;28;19924;-77
2023/09/06 11:39:44;;;;;;;;;;;;;;;30.43;30.90;99175.56;5013979;28;19913;-77
2023/09/06 11:42:11;;;;;;;;;;;;;;;30.40;30.70;99171.47;4980208;28;19913;-77
2023/09/06 11:44:39;;;;;;;;;;;;;;;30.37;30.28;99171.91;4980370;28;20007;-75
2023/09/06 11:47:06;;;;;;;;;;;;;;;30.37;30.46;99174.59;4996258;28;19913;-76
2023/09/06 11:49:33;;;;;;;;;;;;;;;30.47;30.40;99169.47;5012442;28;19917;-76
2023/09/06 11:52:00;;;;;;;;;;;;;;;30.57;30.49;99162.66;5013754;28;20012;-75
2023/09/06 11:54:26;;;;;;;;;;;;;;;30.62;29.79;99160.06;5013450;28;19971;-76
2023/09/06 11:56:52;;;;;;;;;;;;;;;30.58;28.76;99151.63;5014021;28;19980;-77
2023/09/06 11:59:17;;;;;;;;;;;;;;;30.46;28.45;99151.66;5012423;28;20363;-77
2023/09/06 12:01:44;;;;;;;;;;;;;;;30.43;28.35;99144.06;5012272;28;20432;-77
2023/09/06 12:04:20;;;;;;;;;;;;;;;30.51;28.33;99152.84;4996571;28;20435;-77
2023/09/06 12:06:48;;;;;;;;;;;;;;;30.61;28.35;99153.03;4997278;28;19918;-76
2023/09/06 12:09:15;;;;;;;;;;;;;;;30.64;29.05;99142.59;4996010;28;19913;-77
2023/09/06 12:11:40;;;;;;;;;;;;;;;30.81;29.36;99141.88;4979548;28;19913;-78
2023/09/06 12:14:08;;;;;;;;;;;;;;;30.95;30.01;99135.13;5025828;28;19944;-74
2023/09/06 12:16:36;;;;;;;;;;;;;;;30.99;30.28;99143.56;5014787;28;20311;-78
2023/09/06 12:19:01;;;;;;;;;;;;;;;31.00;29.36;99142.53;5015412;28;20369;-77
2023/09/06 12:21:26;;;;;;;;;;;;;;;30.93;29.66;99120.25;5031551;28;19920;-76
2023/09/06 12:23:52;;;;;;;;;;;;;;;30.84;28.92;99115.25;5031534;28;19913;-76
2023/09/06 12:26:18;;;;;;;;;;;;;;;30.89;29.62;99116.41;5030929;28;19913;-75
2023/09/06 12:28:44;;;;;;;;;;;;;;;30.71;29.91;99114.69;5031419;28;19912;-75
2023/09/06 12:31:11;;;;;;;;;;;;;;;30.79;29.44;99103.53;5014783;28;20011;-78
2023/09/06 12:33:36;;;;;;;;;;;;;;;30.87;29.47;99103.19;5032751;28;19916;-76
2023/09/06 12:36:03;;;;;;;;;;;;;;;30.93;29.77;99104.06;5031200;28;19944;-80
2023/09/06 12:38:29;;;;;;;;;;;;;;;30.84;30.23;99103.66;5031668;28;19991;-79
2023/09/06 12:40:56;;;;;;;;;;;;;;;30.82;30.29;99105.75;5031786;28;20393;-79
2023/09/06 12:43:21;;;;;;;;;;;;;;;30.68;30.49;99102.53;5031640;28;20019;-86
2023/09/06 12:45:47;;;;;;;;;;;;;;;30.63;31.76;99099.72;5031529;28;20017;-84